Time;durP1;ratioP1;P1;durP2;ratioP2;P2;SDS_P1;SDS_P2;PMS_P1;PMS_P2;Temp;Humidity;BMP_temperature;BMP_pressure;BME280_temperature;BME280_humidity;BME280_pressure;Samples;Min_cycle;Max_cycle;Signal;HPM_P1;HPM_P2
2021/04/28 00:00:39;;;;;;;5.40;4.47;;;9.90;53.60;;;;;;5003538;28;21028;-47
2021/04/28 00:03:07;;;;;;;8.20;5.30;;;9.90;53.70;;;;;;5001190;28;20464;-47
2021/04/28 00:05:35;;;;;;;5.10;4.60;;;9.90;53.90;;;;;;4999455;28;20475;-47
2021/04/28 00:08:03;;;;;;;6.53;4.60;;;9.80;54.10;;;;;;5005792;28;20464;-47
2021/04/28 00:10:33;;;;;;;7.93;4.93;;;9.80;54.30;;;;;;5002076;28;20470;-47
2021/04/28 00:12:59;;;;;;;5.20;4.57;;;9.80;54.50;;;;;;5008221;28;20553;-47
2021/04/28 00:15:31;;;;;;;5.87;4.57;;;9.80;54.80;;;;;;5009064;28;20484;-47
2021/04/28 00:17:58;;;;;;;5.80;5.17;;;9.80;54.90;;;;;;5007258;28;20535;-47
2021/04/28 00:20:25;;;;;;;5.60;5.07;;;9.70;54.90;;;;;;5007190;28;20974;-47
2021/04/28 00:22:52;;;;;;;7.03;4.70;;;9.70;55.00;;;;;;5020834;28;20466;-47
2021/04/28 00:25:20;;;;;;;6.47;4.90;;;9.70;55.10;;;;;;5008411;28;20466;-47
2021/04/28 00:27:47;;;;;;;9.97;5.90;;;9.70;55.10;;;;;;5004712;28;20904;-47
2021/04/28 00:30:16;;;;;;;5.93;4.80;;;9.60;55.20;;;;;;5008649;28;20831;-47
2021/04/28 00:32:42;;;;;;;6.97;5.10;;;9.60;55.50;;;;;;5005526;28;20849;-47
2021/04/28 00:35:12;;;;;;;8.93;4.97;;;9.50;55.70;;;;;;5009501;28;20471;-47
2021/04/28 00:37:39;;;;;;;6.50;5.70;;;9.50;55.80;;;;;;5003491;28;20460;-47
2021/04/28 00:40:23;;;;;;;6.07;5.57;;;9.50;56.10;;;;;;5001180;28;20456;-47
2021/04/28 00:42:51;;;;;;;9.27;5.33;;;9.40;56.10;;;;;;5016251;28;20469;-47
2021/04/28 00:45:20;;;;;;;7.90;5.40;;;9.40;56.30;;;;;;5003919;28;20464;-47
2021/04/28 00:47:47;;;;;;;7.43;5.70;;;9.40;56.40;;;;;;5008224;28;20455;-47
2021/04/28 00:50:17;;;;;;;9.40;5.60;;;9.40;56.70;;;;;;5010039;28;20468;-47
2021/04/28 00:52:43;;;;;;;6.53;5.20;;;9.40;56.70;;;;;;5001904;28;20484;-47
2021/04/28 00:55:10;;;;;;;8.20;6.00;;;9.30;56.70;;;;;;5006924;28;20913;-47
2021/04/28 00:57:37;;;;;;;7.33;6.00;;;9.30;56.60;;;;;;5004925;28;20460;-47
2021/04/28 01:00:08;;;;;;;6.17;5.23;;;9.30;56.90;;;;;;5006184;28;20444;-47
2021/04/28 01:02:36;;;;;;;7.50;5.40;;;9.30;57.00;;;;;;5007838;28;20464;-47
2021/04/28 01:05:05;;;;;;;6.60;5.37;;;9.30;56.80;;;;;;5004748;28;20490;-47
2021/04/28 01:07:32;;;;;;;7.17;5.50;;;9.30;56.90;;;;;;5007777;28;20497;-47
2021/04/28 01:09:58;;;;;;;8.63;5.90;;;9.20;57.00;;;;;;5007273;28;20497;-47
2021/04/28 01:12:25;;;;;;;8.03;7.17;;;9.20;57.00;;;;;;5005280;28;20505;-47
2021/04/28 01:14:53;;;;;;;13.13;5.80;;;9.20;57.10;;;;;;4999829;28;21040;-47
2021/04/28 01:17:19;;;;;;;7.30;6.13;;;9.20;57.40;;;;;;5015477;28;20480;-47
2021/04/28 01:19:46;;;;;;;8.27;5.90;;;9.10;57.10;;;;;;5020200;28;20464;-47
2021/04/28 01:22:13;;;;;;;6.00;5.43;;;9.10;57.20;;;;;;5004792;28;20468;-47
2021/04/28 01:24:39;;;;;;;6.20;5.10;;;9.10;57.50;;;;;;5003263;28;20471;-47
2021/04/28 01:27:14;;;;;;;5.80;5.07;;;9.10;57.60;;;;;;5002113;28;20476;-47
2021/04/28 01:29:43;;;;;;;7.80;5.83;;;9.00;57.70;;;;;;5007334;28;20475;-47
2021/04/28 01:32:14;;;;;;;6.77;6.17;;;9.00;57.80;;;;;;5005901;28;20970;-47
2021/04/28 01:34:42;;;;;;;7.00;6.00;;;9.00;57.90;;;;;;5018162;28;20955;-47
2021/04/28 01:37:09;;;;;;;8.03;5.77;;;8.90;57.90;;;;;;5020415;28;20459;-47
2021/04/28 01:39:36;;;;;;;8.27;6.70;;;8.90;58.00;;;;;;5007202;28;20476;-47
2021/04/28 01:42:02;;;;;;;9.57;6.27;;;8.90;58.00;;;;;;5011094;28;20457;-46
2021/04/28 01:44:29;;;;;;;8.20;6.07;;;8.90;58.30;;;;;;5005763;28;20460;-47
2021/04/28 01:46:57;;;;;;;10.03;5.40;;;8.90;58.20;;;;;;5005301;28;20468;-47
2021/04/28 01:49:25;;;;;;;6.23;5.50;;;8.80;58.10;;;;;;5004843;28;20523;-47
2021/04/28 01:51:55;;;;;;;8.30;6.33;;;8.80;58.20;;;;;;5012235;28;20449;-47
2021/04/28 01:54:22;;;;;;;7.93;6.40;;;8.70;58.20;;;;;;5002559;28;20491;-47
2021/04/28 01:56:51;;;;;;;10.03;7.77;;;8.70;58.30;;;;;;5005953;28;20892;-47
2021/04/28 01:59:21;;;;;;;6.73;5.80;;;8.70;58.50;;;;;;5003559;28;20460;-47
2021/04/28 02:01:51;;;;;;;9.00;5.83;;;8.70;58.70;;;;;;5004534;28;20844;-47
2021/04/28 02:04:17;;;;;;;7.43;6.03;;;8.60;58.80;;;;;;5009478;28;20453;-47
2021/04/28 02:06:44;;;;;;;7.00;6.30;;;8.60;58.80;;;;;;5007103;28;20460;-48
2021/04/28 02:09:11;;;;;;;9.47;6.50;;;8.60;59.00;;;;;;5001081;28;20473;-48
2021/04/28 02:11:38;;;;;;;7.57;5.70;;;8.50;59.00;;;;;;5007016;28;20464;-48
2021/04/28 02:14:05;;;;;;;7.37;6.40;;;8.50;59.20;;;;;;5005785;28;20510;-48
2021/04/28 02:16:33;;;;;;;6.30;5.30;;;8.50;59.20;;;;;;5006512;28;20850;-48
2021/04/28 02:19:04;;;;;;;13.50;6.77;;;8.40;59.30;;;;;;5019945;28;20467;-48
2021/04/28 02:21:31;;;;;;;8.30;6.30;;;8.40;59.30;;;;;;5001812;28;20457;-49
2021/04/28 02:23:57;;;;;;;8.03;6.63;;;8.40;59.40;;;;;;5008132;28;21012;-49
2021/04/28 02:26:23;;;;;;;8.20;6.20;;;8.40;59.40;;;;;;5018800;28;20476;-49
2021/04/28 02:28:50;;;;;;;10.43;5.53;;;8.40;59.70;;;;;;5007143;28;20460;-48
2021/04/28 02:31:16;;;;;;;11.37;6.63;;;8.40;59.90;;;;;;5018766;28;20461;-48
2021/04/28 02:33:43;;;;;;;6.93;6.23;;;8.40;59.70;;;;;;5006567;28;20499;-49
2021/04/28 02:36:10;;;;;;;7.90;6.13;;;8.30;59.90;;;;;;5008333;28;20965;-49
2021/04/28 02:38:36;;;;;;;9.80;7.77;;;8.30;60.00;;;;;;5007966;28;20479;-48
2021/04/28 02:41:04;;;;;;;6.30;5.60;;;8.30;60.00;;;;;;5004415;28;20822;-48
2021/04/28 02:43:32;;;;;;;7.60;6.90;;;8.20;60.00;;;;;;5017816;28;20484;-48
2021/04/28 02:46:01;;;;;;;6.83;6.07;;;8.20;60.20;;;;;;5009235;28;20480;-48
2021/04/28 02:48:28;;;;;;;12.07;6.60;;;8.20;60.20;;;;;;5005713;28;20824;-46
2021/04/28 02:50:58;;;;;;;7.57;6.53;;;8.20;60.30;;;;;;5002603;28;20462;-46
2021/04/28 02:53:27;;;;;;;7.37;6.47;;;8.10;60.20;;;;;;5002615;28;20484;-46
2021/04/28 02:55:57;;;;;;;9.33;6.70;;;8.10;60.40;;;;;;5000106;28;20503;-45
2021/04/28 02:58:26;;;;;;;8.53;6.00;;;8.10;60.50;;;;;;5007146;28;20546;-45
2021/04/28 03:00:56;;;;;;;8.27;7.00;;;8.00;60.60;;;;;;5005228;28;20478;-45
2021/04/28 03:03:25;;;;;;;6.77;6.07;;;8.00;60.60;;;;;;5007326;28;20457;-45
2021/04/28 03:05:52;;;;;;;9.97;6.50;;;8.00;60.70;;;;;;5005234;28;20559;-46
2021/04/28 03:08:19;;;;;;;8.67;7.07;;;8.00;60.70;;;;;;5007151;28;20813;-45
2021/04/28 03:10:51;;;;;;;13.37;8.17;;;8.00;60.70;;;;;;5005595;28;20452;-45
2021/04/28 03:13:18;;;;;;;18.57;13.30;;;7.90;60.70;;;;;;5006019;28;20484;-45
2021/04/28 03:15:49;;;;;;;12.43;9.10;;;7.90;60.80;;;;;;5016213;28;20480;-45
2021/04/28 03:18:19;;;;;;;10.00;8.03;;;7.90;61.00;;;;;;5002007;28;20592;-45
2021/04/28 03:20:48;;;;;;;8.93;7.40;;;7.80;61.00;;;;;;5003001;28;20839;-45
2021/04/28 03:23:15;;;;;;;10.40;8.13;;;7.80;61.20;;;;;;5005872;28;20526;-45
2021/04/28 03:25:42;;;;;;;9.03;6.53;;;7.70;61.30;;;;;;5020171;28;20468;-45
2021/04/28 03:28:09;;;;;;;10.03;7.00;;;7.70;61.30;;;;;;5003634;28;20457;-46
2021/04/28 03:30:36;;;;;;;7.60;6.80;;;7.70;61.40;;;;;;5003080;28;20487;-45
2021/04/28 03:33:02;;;;;;;10.03;7.23;;;7.70;61.60;;;;;;5005442;28;20499;-46
2021/04/28 03:35:29;;;;;;;9.70;7.83;;;7.60;61.40;;;;;;5006176;28;20464;-46
2021/04/28 03:37:55;;;;;;;10.13;7.57;;;7.60;61.50;;;;;;5003024;28;20456;-45
2021/04/28 03:40:22;;;;;;;10.57;8.10;;;7.60;61.70;;;;;;5005826;28;20546;-45
2021/04/28 03:42:48;;;;;;;8.33;6.90;;;7.50;61.80;;;;;;5005287;28;20826;-45
2021/04/28 03:45:15;;;;;;;8.73;7.40;;;7.50;61.90;;;;;;5004142;28;20461;-45
2021/04/28 03:47:42;;;;;;;8.80;7.37;;;7.50;61.90;;;;;;5008575;28;20521;-45
2021/04/28 03:50:10;;;;;;;10.33;8.30;;;7.50;61.90;;;;;;5008647;28;20462;-45
2021/04/28 03:52:37;;;;;;;8.60;7.80;;;7.50;62.00;;;;;;5007183;28;20487;-45
2021/04/28 03:55:06;;;;;;;7.73;6.93;;;7.40;62.10;;;;;;5005270;28;20551;-45
2021/04/28 03:57:32;;;;;;;6.57;5.80;;;7.40;62.20;;;;;;5006146;28;20460;-45
2021/04/28 04:00:00;;;;;;;7.60;6.57;;;7.40;62.30;;;;;;5008238;28;20478;-45
2021/04/28 04:02:29;;;;;;;10.23;7.57;;;7.40;62.30;;;;;;5005703;28;20468;-45
2021/04/28 04:04:57;;;;;;;7.47;5.90;;;7.30;62.50;;;;;;5004327;28;20550;-46
2021/04/28 04:07:23;;;;;;;7.90;6.60;;;7.30;62.50;;;;;;5024520;28;20456;-45
2021/04/28 04:09:50;;;;;;;7.67;6.27;;;7.30;62.50;;;;;;5008296;28;20503;-46
2021/04/28 04:12:16;;;;;;;7.83;6.63;;;7.30;62.70;;;;;;5006018;28;20456;-45
2021/04/28 04:14:42;;;;;;;9.97;7.97;;;7.30;62.70;;;;;;5006062;28;20981;-45
2021/04/28 04:17:09;;;;;;;7.10;6.40;;;7.20;62.80;;;;;;5008230;28;20491;-45
2021/04/28 04:19:35;;;;;;;8.43;6.90;;;7.20;62.90;;;;;;5006071;28;20463;-46
2021/04/28 04:22:02;;;;;;;10.17;8.53;;;7.20;63.10;;;;;;5004084;28;20460;-45
2021/04/28 04:24:29;;;;;;;11.50;9.20;;;7.20;63.20;;;;;;5007124;28;20549;-45
2021/04/28 04:26:56;;;;;;;17.13;9.03;;;7.30;63.30;;;;;;5008695;28;20510;-46
2021/04/28 04:29:22;;;;;;;15.93;9.87;;;7.30;63.30;;;;;;5020219;28;20473;-45
2021/04/28 04:31:49;;;;;;;14.70;9.97;;;7.30;63.30;;;;;;5011433;28;20460;-45
2021/04/28 04:34:15;;;;;;;27.27;17.97;;;7.30;63.20;;;;;;5037624;28;20759;-45
2021/04/28 04:36:41;;;;;;;38.70;18.80;;;7.30;63.20;;;;;;5003430;28;20479;-45
2021/04/28 04:39:07;;;;;;;41.83;22.80;;;7.30;63.40;;;;;;5005194;28;20456;-45
2021/04/28 04:41:34;;;;;;;39.60;22.17;;;7.30;63.50;;;;;;5005425;28;20464;-45
2021/04/28 04:44:00;;;;;;;40.10;20.60;;;7.30;63.50;;;;;;5004341;28;20545;-45
2021/04/28 04:46:26;;;;;;;40.40;19.33;;;7.30;63.60;;;;;;5008283;28;20564;-45
2021/04/28 04:48:53;;;;;;;34.57;18.67;;;7.30;63.70;;;;;;5008760;28;20459;-45
2021/04/28 04:51:19;;;;;;;32.03;16.47;;;7.40;63.80;;;;;;5004076;28;20555;-45
2021/04/28 04:53:45;;;;;;;25.10;16.80;;;7.40;63.90;;;;;;5001022;28;20485;-45
2021/04/28 04:56:12;;;;;;;22.60;12.57;;;7.40;63.90;;;;;;5004174;28;20456;-45
2021/04/28 04:58:38;;;;;;;19.03;10.20;;;7.40;64.00;;;;;;5009120;28;20464;-45
2021/04/28 05:01:05;;;;;;;15.00;9.63;;;7.50;64.00;;;;;;5011159;28;20456;-45
2021/04/28 05:03:31;;;;;;;14.97;9.30;;;7.50;64.10;;;;;;5011508;28;20456;-45
2021/04/28 05:05:57;;;;;;;11.83;8.90;;;7.50;64.00;;;;;;5009958;28;20458;-45
2021/04/28 05:08:24;;;;;;;16.70;8.43;;;7.50;64.20;;;;;;5008797;28;21076;-45
2021/04/28 05:10:50;;;;;;;13.50;8.20;;;7.50;64.20;;;;;;5011254;28;20452;-45
2021/04/28 05:13:16;;;;;;;16.53;8.37;;;7.60;64.20;;;;;;5004537;28;20493;-45
2021/04/28 05:15:43;;;;;;;9.57;7.90;;;7.60;64.30;;;;;;5009120;28;20476;-45
2021/04/28 05:18:09;;;;;;;16.33;9.73;;;7.70;64.50;;;;;;5006938;28;20449;-45
2021/04/28 05:20:38;;;;;;;12.70;8.20;;;7.80;64.60;;;;;;5012054;28;20440;-45
2021/04/28 05:23:04;;;;;;;18.47;8.00;;;7.80;64.60;;;;;;5007922;28;20550;-45
2021/04/28 05:25:31;;;;;;;8.23;7.43;;;7.90;64.80;;;;;;5010067;28;20840;-46
2021/04/28 05:27:57;;;;;;;12.23;8.20;;;7.90;64.60;;;;;;5007717;28;20464;-45
2021/04/28 05:30:28;;;;;;;8.90;7.93;;;7.90;64.70;;;;;;5009463;28;20849;-46
2021/04/28 05:32:57;;;;;;;9.20;6.93;;;8.00;64.70;;;;;;5008544;28;20891;-45
2021/04/28 05:35:23;;;;;;;9.27;8.37;;;8.00;65.20;;;;;;5011041;28;20476;-45
2021/04/28 05:37:50;;;;;;;9.73;7.70;;;8.10;65.30;;;;;;5006989;28;20878;-45
2021/04/28 05:40:19;;;;;;;9.97;7.93;;;8.20;65.40;;;;;;5006651;28;20464;-45
2021/04/28 05:42:46;;;;;;;13.10;7.50;;;8.30;65.10;;;;;;5009029;28;20453;-46
2021/04/28 05:45:15;;;;;;;9.50;8.60;;;8.30;65.20;;;;;;5010348;28;20452;-45
2021/04/28 05:47:42;;;;;;;16.73;9.07;;;8.40;65.10;;;;;;5008217;28;20527;-45
2021/04/28 05:50:12;;;;;;;9.03;7.83;;;8.40;64.80;;;;;;5011099;28;20806;-45
2021/04/28 05:52:38;;;;;;;9.27;6.70;;;8.60;64.40;;;;;;5008655;28;20456;-45
2021/04/28 05:55:07;;;;;;;12.20;8.23;;;8.70;63.40;;;;;;5009671;28;20444;-45
2021/04/28 05:57:34;;;;;;;14.00;6.93;;;8.80;62.20;;;;;;5008938;28;20456;-45
2021/04/28 06:00:04;;;;;;;9.53;7.17;;;8.90;61.60;;;;;;5006793;28;20457;-45
2021/04/28 06:02:30;;;;;;;13.00;7.40;;;9.10;60.40;;;;;;5004857;28;20464;-45
2021/04/28 06:04:56;;;;;;;10.53;7.13;;;9.20;59.30;;;;;;5020162;28;20833;-45
2021/04/28 06:07:23;;;;;;;9.13;7.47;;;9.40;59.10;;;;;;5005758;28;20559;-45
2021/04/28 06:09:49;;;;;;;7.37;6.77;;;9.40;59.30;;;;;;5011988;28;20456;-45
2021/04/28 06:12:15;;;;;;;10.00;7.17;;;9.60;58.50;;;;;;5003766;28;20459;-45
2021/04/28 06:14:41;;;;;;;8.50;7.30;;;9.70;58.50;;;;;;5004989;28;20491;-45
2021/04/28 06:17:07;;;;;;;13.37;8.17;;;9.90;57.00;;;;;;5003387;28;21001;-45
2021/04/28 06:19:36;;;;;;;10.73;7.77;;;10.00;56.50;;;;;;5019320;28;20847;-45
2021/04/28 06:22:03;;;;;;;9.73;8.30;;;10.20;56.80;;;;;;5001671;28;20475;-45
2021/04/28 06:24:34;;;;;;;7.83;7.13;;;10.30;55.40;;;;;;5005202;28;20452;-45
2021/04/28 06:27:01;;;;;;;8.63;7.70;;;10.40;54.30;;;;;;5004834;28;20469;-45
2021/04/28 06:29:27;;;;;;;11.27;7.50;;;10.60;54.30;;;;;;5007760;28;20467;-45
2021/04/28 06:31:54;;;;;;;8.47;7.40;;;10.80;53.60;;;;;;5006708;28;20453;-45
2021/04/28 06:34:21;;;;;;;9.47;8.00;;;10.90;52.40;;;;;;5005073;28;20493;-45
2021/04/28 06:36:47;;;;;;;8.70;7.47;;;11.10;52.20;;;;;;5008176;28;20467;-46
2021/04/28 06:39:14;;;;;;;9.57;7.33;;;11.20;51.70;;;;;;5004590;28;20463;-45
2021/04/28 06:41:42;;;;;;;8.23;7.30;;;11.40;52.20;;;;;;5003130;28;20456;-45
2021/04/28 06:44:09;;;;;;;13.33;6.80;;;11.60;51.30;;;;;;5009834;28;20448;-45
2021/04/28 06:46:35;;;;;;;9.40;7.57;;;11.80;50.50;;;;;;5006870;28;20549;-45
2021/04/28 06:49:02;;;;;;;8.63;6.53;;;11.90;50.20;;;;;;5007952;28;20474;-45
2021/04/28 06:51:28;;;;;;;33.20;11.27;;;12.10;49.90;;;;;;5021448;28;20563;-45
2021/04/28 06:53:54;;;;;;;91.30;17.20;;;12.20;49.70;;;;;;5006401;28;20496;-45
2021/04/28 06:56:21;;;;;;;16.63;8.47;;;12.40;48.60;;;;;;5008531;28;20484;-45
2021/04/28 06:58:49;;;;;;;10.17;6.77;;;12.50;48.30;;;;;;5006494;28;20730;-45
2021/04/28 07:01:15;;;;;;;10.70;7.00;;;12.70;48.80;;;;;;5008779;28;20463;-45
2021/04/28 07:03:42;;;;;;;9.30;8.00;;;12.90;48.20;;;;;;5010239;28;20456;-45
2021/04/28 07:06:11;;;;;;;10.90;7.30;;;13.10;47.40;;;;;;5003567;28;20463;-45
2021/04/28 07:08:39;;;;;;;7.23;6.53;;;13.20;47.20;;;;;;5007912;28;20535;-44
2021/04/28 07:11:06;;;;;;;7.60;6.47;;;13.40;46.90;;;;;;5002679;28;20460;-46
2021/04/28 07:13:33;;;;;;;12.40;7.47;;;13.50;46.50;;;;;;5006890;28;20587;-46
2021/04/28 07:15:59;;;;;;;9.60;7.83;;;13.60;45.90;;;;;;4997866;28;21108;-45
2021/04/28 07:18:26;;;;;;;10.97;6.93;;;13.70;45.80;;;;;;5003389;28;20517;-45
2021/04/28 07:20:52;;;;;;;9.73;7.10;;;13.80;45.60;;;;;;5009209;28;20469;-44
2021/04/28 07:23:18;;;;;;;12.57;7.57;;;14.00;45.50;;;;;;5002572;28;20464;-46
2021/04/28 07:25:45;;;;;;;10.43;8.10;;;14.10;45.20;;;;;;5001582;28;21042;-46
2021/04/28 07:28:11;;;;;;;9.63;7.77;;;14.20;45.10;;;;;;5021845;28;20475;-45
2021/04/28 07:30:37;;;;;;;12.93;7.50;;;14.30;45.10;;;;;;5005449;28;20834;-45
2021/04/28 07:33:05;;;;;;;11.10;9.37;;;14.40;45.10;;;;;;5005069;28;20484;-45
2021/04/28 07:35:32;;;;;;;12.40;7.97;;;14.50;44.90;;;;;;5006918;28;21024;-45
2021/04/28 07:37:58;;;;;;;12.97;8.33;;;14.70;44.60;;;;;;5011127;28;20478;-45
2021/04/28 07:40:25;;;;;;;9.67;7.53;;;14.80;44.60;;;;;;5007497;28;20519;-44
2021/04/28 07:42:52;;;;;;;7.93;7.13;;;15.00;44.80;;;;;;5009356;28;20456;-44
2021/04/28 07:45:20;;;;;;;11.30;7.67;;;15.20;44.90;;;;;;5005347;28;20460;-44
2021/04/28 07:47:51;;;;;;;10.80;8.00;;;15.40;43.80;;;;;;5000487;28;20468;-44
2021/04/28 07:50:18;;;;;;;10.50;7.83;;;15.50;43.20;;;;;;5003034;28;20555;-44
2021/04/28 07:52:49;;;;;;;12.23;8.03;;;15.70;43.40;;;;;;5003569;28;20503;-45
2021/04/28 07:55:17;;;;;;;8.43;7.50;;;15.80;42.40;;;;;;5001077;28;20463;-45
2021/04/28 07:57:44;;;;;;;10.57;8.47;;;15.90;42.20;;;;;;5000118;28;20464;-44
2021/04/28 08:00:13;;;;;;;9.70;7.50;;;16.10;41.80;;;;;;5006022;28;20817;-44
2021/04/28 08:02:40;;;;;;;10.30;8.83;;;16.20;42.00;;;;;;5007119;28;20848;-44
2021/04/28 08:05:08;;;;;;;10.73;7.93;;;16.30;42.50;;;;;;5000885;28;21250;-44
2021/04/28 08:07:35;;;;;;;12.13;7.90;;;16.40;42.60;;;;;;5008703;28;20468;-45
2021/04/28 08:10:07;;;;;;;9.23;8.27;;;16.50;42.80;;;;;;5004631;28;20515;-45
2021/04/28 08:12:34;;;;;;;10.00;7.97;;;16.70;42.20;;;;;;5006126;28;20511;-45
2021/04/28 08:15:02;;;;;;;10.10;7.83;;;16.90;41.80;;;;;;5003777;28;20504;-45
2021/04/28 08:17:30;;;;;;;14.00;8.10;;;17.00;42.00;;;;;;5005127;28;20460;-45
2021/04/28 08:19:57;;;;;;;13.60;8.50;;;17.20;42.30;;;;;;5002809;28;20464;-45
2021/04/28 08:22:25;;;;;;;13.53;9.17;;;17.20;41.70;;;;;;5010779;28;20532;-45
2021/04/28 08:24:52;;;;;;;13.00;8.83;;;17.40;40.90;;;;;;5005755;28;20871;-45
2021/04/28 08:27:19;;;;;;;10.83;9.00;;;17.50;40.80;;;;;;5008915;28;20449;-45
2021/04/28 08:29:45;;;;;;;12.33;8.83;;;17.70;40.40;;;;;;5008762;28;21093;-45
2021/04/28 08:32:14;;;;;;;11.53;8.13;;;17.90;40.10;;;;;;5008163;28;20538;-45
2021/04/28 08:34:40;;;;;;;11.13;7.83;;;18.00;39.80;;;;;;5006066;28;20846;-45
2021/04/28 08:37:07;;;;;;;14.53;8.40;;;18.30;40.30;;;;;;5010352;28;20491;-46
2021/04/28 08:39:33;;;;;;;10.70;8.83;;;18.40;40.30;;;;;;5012298;28;20461;-45
2021/04/28 08:41:59;;;;;;;15.80;11.20;;;18.60;39.00;;;;;;5012110;28;20452;-45
2021/04/28 08:44:29;;;;;;;12.30;8.10;;;18.80;38.70;;;;;;5018313;28;20558;-45
2021/04/28 08:46:55;;;;;;;12.17;8.00;;;19.00;39.10;;;;;;5026955;28;20958;-45
2021/04/28 08:49:23;;;;;;;12.80;9.07;;;19.20;39.10;;;;;;5009711;28;20556;-45
2021/04/28 08:51:52;;;;;;;13.00;9.50;;;19.40;38.00;;;;;;5005699;28;20469;-45
2021/04/28 08:54:19;;;;;;;10.30;9.03;;;19.70;37.10;;;;;;5006744;28;20491;-45
2021/04/28 08:56:53;;;;;;;14.87;9.00;;;19.90;36.80;;;;;;5002262;28;20460;-45
2021/04/28 08:59:20;;;;;;;14.47;8.20;;;20.20;36.40;;;;;;5009940;28;20482;-45
2021/04/28 09:01:48;;;;;;;10.40;9.07;;;20.50;36.20;;;;;;5005714;28;20456;-46
2021/04/28 09:04:16;;;;;;;13.60;9.20;;;20.80;35.60;;;;;;5008414;28;20463;-46
2021/04/28 09:06:43;;;;;;;31.43;10.60;;;21.10;34.90;;;;;;5011873;28;20470;-45
2021/04/28 09:09:14;;;;;;;12.20;8.67;;;21.40;34.90;;;;;;5011207;28;20448;-45
2021/04/28 09:11:47;;;;;;;13.70;9.50;;;21.80;34.20;;;;;;5008325;28;21039;-46
2021/04/28 09:14:16;;;;;;;11.57;8.27;;;22.10;33.70;;;;;;5007202;28;20551;-45
2021/04/28 09:17:07;;;;;;;11.40;9.33;;;22.50;33.70;;;;;;5007021;28;20559;-46
2021/04/28 09:19:42;;;;;;;12.77;10.17;;;22.90;32.70;;;;;;5025142;28;20572;-45
2021/04/28 09:22:11;;;;;;;10.97;9.43;;;23.20;32.40;;;;;;5010630;28;20483;-46
2021/04/28 09:24:54;;;;;;;13.87;9.43;;;23.60;32.30;;;;;;5007486;28;20527;-46
2021/04/28 09:27:30;;;;;;;14.20;9.47;;;23.90;32.10;;;;;;5009359;28;20470;-46
2021/04/28 09:29:56;;;;;;;15.43;9.93;;;24.20;31.20;;;;;;5011008;28;20888;-46
2021/04/28 09:32:37;;;;;;;12.97;8.80;;;24.50;30.50;;;;;;5006780;28;20488;-46
2021/04/28 09:35:20;;;;;;;13.50;10.10;;;24.80;30.60;;;;;;5007932;28;20487;-45
2021/04/28 09:37:53;;;;;;;15.07;9.87;;;25.20;30.50;;;;;;5006147;28;20550;-46
2021/04/28 09:40:22;;;;;;;15.40;10.03;;;25.50;29.80;;;;;;5007908;28;20464;-46
2021/04/28 09:42:53;;;;;;;16.97;9.47;;;25.90;30.00;;;;;;5010809;28;20514;-46
2021/04/28 09:45:44;;;;;;;14.43;10.23;;;26.20;29.50;;;;;;5006466;28;20824;-46
2021/04/28 09:48:23;;;;;;;13.63;10.67;;;26.40;28.90;;;;;;5006402;28;20550;-45
2021/04/28 09:51:06;;;;;;;23.30;10.20;;;26.80;28.00;;;;;;5009287;28;20463;-46
2021/04/28 09:53:33;;;;;;;17.60;10.17;;;27.10;27.20;;;;;;5008248;28;20583;-46
2021/04/28 09:56:00;;;;;;;13.43;9.80;;;27.30;26.70;;;;;;5008349;28;20448;-46
2021/04/28 09:58:46;;;;;;;11.20;9.20;;;27.50;26.80;;;;;;5011008;28;21314;-46
2021/04/28 10:01:29;;;;;;;12.37;10.90;;;27.80;26.40;;;;;;5008102;28;20468;-46
2021/04/28 10:03:55;;;;;;;13.37;10.57;;;27.90;25.80;;;;;;5008982;28;20968;-46
2021/04/28 10:06:48;;;;;;;16.83;11.90;;;28.10;25.60;;;;;;5003641;28;20456;-44
2021/04/28 10:09:23;;;;;;;13.10;10.30;;;28.30;25.20;;;;;;5002237;28;20515;-46
2021/04/28 10:11:49;;;;;;;17.00;10.70;;;28.30;25.30;;;;;;5009240;28;20465;-45
2021/04/28 10:14:16;;;;;;;12.27;10.10;;;28.40;25.30;;;;;;5003783;28;20502;-45
2021/04/28 10:16:45;;;;;;;15.10;11.37;;;28.50;25.60;;;;;;5005701;28;20570;-45
2021/04/28 10:19:17;;;;;;;12.53;11.20;;;28.60;25.80;;;;;;5021154;28;20464;-45
2021/04/28 10:21:45;;;;;;;18.50;12.10;;;28.60;25.60;;;;;;5007351;28;20930;-46
2021/04/28 10:24:12;;;;;;;14.33;11.40;;;28.50;25.30;;;;;;5006251;28;20459;-46
2021/04/28 10:26:39;;;;;;;14.17;11.10;;;28.40;25.50;;;;;;5007711;28;20463;-46
2021/04/28 10:29:08;;;;;;;16.50;11.87;;;28.30;25.50;;;;;;5007588;28;20907;-45
2021/04/28 10:31:37;;;;;;;19.70;10.70;;;28.10;26.00;;;;;;5007563;28;20463;-44
2021/04/28 10:34:14;;;;;;;12.63;10.47;;;27.90;26.10;;;;;;5005817;28;20483;-44
2021/04/28 10:36:44;;;;;;;15.30;10.87;;;27.70;26.70;;;;;;5009409;28;20464;-44
2021/04/28 10:39:11;;;;;;;14.97;11.63;;;27.40;27.00;;;;;;5009967;28;21365;-45
2021/04/28 10:41:44;;;;;;;18.67;11.20;;;27.30;26.90;;;;;;5027777;28;20557;-44
2021/04/28 10:44:29;;;;;;;15.93;11.37;;;27.20;26.80;;;;;;5006755;28;20455;-44
2021/04/28 10:47:14;;;;;;;20.97;11.87;;;27.10;27.30;;;;;;5007277;28;20960;-44
2021/04/28 10:50:14;;;;;;;17.20;12.57;;;27.00;27.10;;;;;;5009213;28;20474;-44
2021/04/28 10:52:44;;;;;;;18.37;12.60;;;26.80;27.10;;;;;;5005612;28;20562;-45
2021/04/28 10:55:45;;;;;;;19.03;13.03;;;26.50;27.30;;;;;;5004278;28;20487;-46
2021/04/28 10:58:27;;;;;;;14.53;12.13;;;26.20;27.80;;;;;;5008007;28;20466;-45
2021/04/28 11:03:36;;;;;;;27.03;13.80;;;25.50;28.70;;;;;;5009421;28;20504;-45
2021/04/28 11:06:21;;;;;;;17.20;11.90;;;25.20;29.50;;;;;;5010277;28;20836;-45
2021/04/28 11:08:54;;;;;;;16.23;12.43;;;25.00;29.40;;;;;;5005988;28;20535;-44
2021/04/28 11:11:37;;;;;;;16.80;13.23;;;24.90;29.80;;;;;;5024226;28;20531;-44
2021/04/28 11:14:17;;;;;;;15.97;12.00;;;24.90;29.90;;;;;;5006901;28;20545;-44
2021/04/28 11:17:16;;;;;;;15.77;12.20;;;24.80;30.30;;;;;;5010557;28;20593;-44
2021/04/28 11:19:44;;;;;;;16.73;12.60;;;24.60;30.50;;;;;;5008071;28;20495;-44
2021/04/28 11:22:19;;;;;;;16.20;11.97;;;24.60;30.70;;;;;;5025638;28;20832;-44
2021/04/28 11:24:58;;;;;;;19.00;12.03;;;24.60;31.10;;;;;;5009276;28;20789;-44
2021/04/28 11:28:02;;;;;;;20.83;13.70;;;24.60;31.00;;;;;;5007063;28;20448;-44
2021/04/28 11:30:51;;;;;;;16.80;12.53;;;24.40;31.30;;;;;;5007021;28;21187;-44
2021/04/28 11:33:33;;;;;;;18.50;13.10;;;24.40;31.20;;;;;;5009119;28;20440;-45
2021/04/28 11:36:03;;;;;;;18.27;13.57;;;24.30;31.20;;;;;;5006791;28;20503;-44
2021/04/28 11:38:32;;;;;;;20.33;13.10;;;24.30;30.20;;;;;;5008598;28;20530;-44
2021/04/28 11:41:15;;;;;;;16.97;13.30;;;24.20;29.80;;;;;;5007401;28;20523;-44
2021/04/28 11:43:49;;;;;;;18.63;12.47;;;24.20;30.90;;;;;;5020502;28;20522;-44
2021/04/28 11:46:23;;;;;;;17.47;13.07;;;24.10;30.80;;;;;;5006553;28;20452;-44
2021/04/28 11:48:54;;;;;;;18.70;13.37;;;24.00;31.40;;;;;;5011254;28;20480;-44
2021/04/28 11:51:27;;;;;;;21.00;14.80;;;24.00;31.00;;;;;;5009449;28;20848;-45
2021/04/28 11:54:03;;;;;;;16.80;13.53;;;23.80;31.20;;;;;;5007405;28;20919;-45
2021/04/28 11:56:33;;;;;;;19.90;12.70;;;23.50;31.70;;;;;;5007808;28;20540;-46
2021/04/28 11:59:00;;;;;;;18.30;13.60;;;23.40;32.30;;;;;;5008761;28;20457;-44
2021/04/28 12:01:29;;;;;;;19.10;13.30;;;23.40;32.50;;;;;;5006970;28;20487;-46
2021/04/28 12:04:08;;;;;;;20.70;14.20;;;23.50;31.70;;;;;;5010160;28;20464;-45
2021/04/28 12:06:38;;;;;;;19.73;14.17;;;23.50;31.70;;;;;;5007808;28;20903;-46
2021/04/28 12:09:07;;;;;;;18.47;13.43;;;23.60;32.40;;;;;;5014254;28;20794;-45
2021/04/28 12:11:41;;;;;;;19.47;13.53;;;23.60;32.30;;;;;;5011721;28;20960;-45
2021/04/28 12:14:07;;;;;;;20.70;14.00;;;23.80;32.00;;;;;;5012915;28;20928;-45
2021/04/28 12:16:55;;;;;;;15.43;12.47;;;23.80;31.50;;;;;;5023768;28;20503;-45
2021/04/28 12:19:24;;;;;;;17.47;14.03;;;23.90;31.90;;;;;;5012984;28;20459;-45
2021/04/28 12:22:03;;;;;;;20.20;13.57;;;24.10;31.40;;;;;;5010843;28;20541;-45
2021/04/28 12:24:33;;;;;;;16.07;13.10;;;24.10;31.40;;;;;;5009826;28;20563;-45
2021/04/28 12:27:03;;;;;;;18.73;12.87;;;24.00;29.80;;;;;;5012424;28;20465;-45
2021/04/28 12:29:29;;;;;;;18.40;12.47;;;24.10;29.70;;;;;;5013635;28;20451;-45
2021/04/28 12:31:58;;;;;;;16.90;13.27;;;24.00;30.00;;;;;;5010373;28;20452;-45
2021/04/28 12:34:27;;;;;;;17.50;11.80;;;23.90;30.40;;;;;;5007496;28;20480;-45
2021/04/28 12:36:53;;;;;;;15.97;12.30;;;23.90;29.90;;;;;;5008415;28;21117;-45
2021/04/28 12:39:38;;;;;;;16.93;13.30;;;23.90;30.50;;;;;;5008564;28;20539;-45
2021/04/28 12:42:06;;;;;;;17.57;13.57;;;23.90;30.50;;;;;;5009070;28;20483;-45
2021/04/28 12:44:36;;;;;;;16.93;13.27;;;23.80;31.10;;;;;;5010191;28;20452;-45
2021/04/28 12:47:03;;;;;;;18.80;12.27;;;23.80;30.90;;;;;;5010210;28;21001;-45
2021/04/28 12:49:30;;;;;;;19.13;11.00;;;23.80;30.40;;;;;;5009377;28;20469;-45
2021/04/28 12:51:58;;;;;;;16.63;11.40;;;23.80;31.10;;;;;;5009592;28;21391;-45
2021/04/28 12:54:25;;;;;;;13.60;10.33;;;23.90;30.00;;;;;;5023824;28;20494;-45
2021/04/28 12:56:52;;;;;;;21.53;12.60;;;24.00;29.30;;;;;;5006193;28;20460;-45